Etusivu
METAR-TAF:

METAR-TAF

Lentoasemat :

Vientiane, Laos

Leveyspiiri: 17-57N, Pituuspiiri: 102-34E, korkeus merenpinnasta: 171 m

Tämänhetkinen sää

Tämä raportti tehtiin 26 minuuttia sitten, kello 10.00 UTC
Tuuli 10 kn idästä/koillisesta
Lämpötila 29°C
Kosteus 70%
Ilmanpaine 1008 hPa
Näkyvyys: 8000 m
Hajanaisia pilviä 10000 ft:n korkeudessa

METAR: VLVT 071000Z 06010KT 8000 SCT100 29/23 Q1008 NOSIG

Aika: 17:26 (10:26 UTC)

Sääennuste

Tämä raportti tehtiin 11 tuntia ja 26 minuuttia sitten, kello 23.00 UTC
Ennuste voimassa 07. päivästä klo 00 UTC - 07. päivään klo 24 UTC
Tuuli 8 kn idästä
Näkyvyys: 8000 m
Hajanaisia pilviä 2000 ft:n korkeudessa
Hajanaisia pilviä 20000 ft:n korkeudessa

TAF: VLVT 062300Z 0700/0724 09008KT 8000 SCT020 SCT200

Säähavainnot ja -ennusteet yli 4000 lentoasemalta (METAR- ja TAF-raportit).

Käytössä olevat sääasemat on merkitty karttaan keltaisilla ja punaisilla pisteillä.

Aseta hiiri pisteen päälle nähdäksesi sääaseman nimen.

Klikkaa sitten nähdäksesi säähavainnot ja -ennusteet.

Kartan vaihtaminen: klikkaa mustalla rastilla varustettuja vihreitä pisteitä, niin voit zoomata sisään; viivalla varustettua vihreää pistettä, niin voit zoomata ulos tai vihreitä nuolia, niin pääset viereisille kartoille.


METAR-TAF: